createdAt,value
2018-04-02T00:00:19.136Z,6.7
2018-04-02T00:02:18.752Z,6.2
2018-04-02T00:04:18.529Z,5.8
2018-04-02T00:06:19.100Z,7.1
2018-04-02T00:08:18.863Z,6.5
2018-04-02T00:10:19.121Z,6.6
2018-04-02T00:12:18.899Z,5.9
2018-04-02T00:14:18.667Z,6.2
2018-04-02T00:16:18.831Z,5.4
2018-04-02T00:18:18.663Z,6.3
2018-04-02T00:20:19.427Z,6.6
2018-04-02T00:22:19.186Z,6.2
2018-04-02T00:24:18.945Z,7
2018-04-02T00:26:18.532Z,6.9
2018-04-02T00:28:19.291Z,6
2018-04-02T00:30:19.090Z,6.9
2018-04-02T00:32:18.843Z,6.7
2018-04-02T00:34:18.582Z,6.8
2018-04-02T00:36:19.264Z,6.4
2018-04-02T00:38:19.050Z,6.3
2018-04-02T00:40:19.344Z,6.7
2018-04-02T00:42:19.114Z,7.4
2018-04-02T00:44:18.862Z,6.6
2018-04-02T00:46:19.498Z,7.8
2018-04-02T00:48:19.239Z,6.1
2018-04-02T00:50:19.005Z,6.9
2018-04-02T00:52:18.750Z,6.4
2018-04-02T00:54:18.513Z,6.7
2018-04-02T00:56:19.112Z,7.5
2018-04-02T00:58:18.882Z,6.8
2018-04-02T01:00:18.650Z,7.1
2018-04-02T01:02:19.403Z,7.8
2018-04-02T01:04:19.171Z,6.8
2018-04-02T01:06:19.299Z,8.6
2018-04-02T01:08:19.069Z,8.4
2018-04-02T01:10:19.331Z,7.4
2018-04-02T01:12:19.086Z,8.3
2018-04-02T01:14:18.851Z,7.7
2018-04-02T01:16:19.383Z,6.2
2018-04-02T01:18:19.200Z,7.8
2018-04-02T01:20:18.952Z,8.8
2018-04-02T01:22:18.727Z,8.4
2018-04-02T01:24:18.483Z,8.7
2018-04-02T01:26:18.638Z,7.6
2018-04-02T01:28:19.381Z,7.6
2018-04-02T01:30:19.132Z,9.3
2018-04-02T01:32:18.885Z,9.3
2018-04-02T01:34:18.637Z,9.2
2018-04-02T01:36:18.832Z,10.1
2018-04-02T01:38:18.615Z,9.4
2018-04-02T01:40:18.822Z,9.2
2018-04-02T01:42:18.564Z,10.8
2018-04-02T01:44:19.320Z,9.9
2018-04-02T01:46:18.855Z,10.5
2018-04-02T01:48:18.629Z,9.3
2018-04-02T01:50:19.359Z,9.9
2018-04-02T01:52:19.139Z,10.2
2018-04-02T01:54:18.883Z,11.2
2018-04-02T01:56:19.437Z,9
2018-04-02T01:58:19.204Z,10.3
2018-04-02T02:00:18.952Z,10.2
2018-04-02T02:02:18.732Z,10.1
2018-04-02T02:04:18.487Z,9
2018-04-02T02:06:18.706Z,10.8
2018-04-02T02:08:19.456Z,11.3
2018-04-02T02:10:18.658Z,10.3
2018-04-02T02:12:19.362Z,12.5
2018-04-02T02:14:19.137Z,9.8
2018-04-02T02:16:18.837Z,10.5
2018-04-02T02:18:18.663Z,9.7
2018-04-02T02:20:19.475Z,9.3
2018-04-02T02:22:19.212Z,10.1
2018-04-02T02:24:18.962Z,10.2
2018-04-02T02:26:18.840Z,8.7
2018-04-02T02:28:18.620Z,9.7
2018-04-02T02:30:19.407Z,9.4
2018-04-02T02:32:19.165Z,9.4
2018-04-02T02:34:18.967Z,9
2018-04-02T02:36:18.688Z,9.8
2018-04-02T02:38:19.452Z,9.8
2018-04-02T02:40:18.669Z,7.7
2018-04-02T02:42:19.410Z,10.4
2018-04-02T02:44:19.189Z,11.2
2018-04-02T02:46:18.755Z,11.3
2018-04-02T02:48:18.511Z,10.1
2018-04-02T02:50:19.290Z,11.4
2018-04-02T02:52:19.050Z,10.7
2018-04-02T02:54:18.817Z,9.7
2018-04-02T02:56:18.943Z,10.7
2018-04-02T02:58:18.715Z,9.3
2018-04-02T03:00:19.454Z,9.2
2018-04-02T03:02:19.218Z,10.6
2018-04-02T03:04:18.995Z,9.6
2018-04-02T03:06:18.579Z,10.4
2018-04-02T03:08:19.366Z,10.5
2018-04-02T03:10:18.617Z,11
2018-04-02T03:12:19.346Z,10.7
2018-04-02T03:14:19.107Z,9.4
2018-04-02T03:16:18.646Z,9.2
2018-04-02T03:18:18.491Z,9.3
2018-04-02T03:20:19.273Z,9.1
2018-04-02T03:22:19.040Z,10.3
2018-04-02T03:24:18.773Z,12
2018-04-02T03:26:19.158Z,10.5
2018-04-02T03:28:18.923Z,10.7
2018-04-02T03:30:18.777Z,10.2
2018-04-02T03:32:18.536Z,10.3
2018-04-02T03:34:19.310Z,9.8
2018-04-02T03:36:19.417Z,10.5
2018-04-02T03:38:19.172Z,10.2
2018-04-02T03:40:19.428Z,11.2
2018-04-02T03:42:19.158Z,10.1
2018-04-02T03:44:18.902Z,10.2
2018-04-02T03:46:19.022Z,10.5
2018-04-02T03:48:18.800Z,10.4
2018-04-02T03:50:18.545Z,10.4
2018-04-02T03:52:19.295Z,10
2018-04-02T03:54:19.040Z,11.5
2018-04-02T03:56:18.557Z,9.6
2018-04-02T03:58:19.298Z,9.9
2018-04-02T04:00:19.051Z,10.4
2018-04-02T04:02:18.790Z,9.9
2018-04-02T04:04:18.549Z,10.1
2018-04-02T04:06:18.573Z,10.5
2018-04-02T04:08:19.321Z,11.2
2018-04-02T04:10:18.501Z,8.8
2018-04-02T04:12:19.298Z,9.7
2018-04-02T04:14:19.060Z,9.2
2018-04-02T04:16:18.594Z,10
2018-04-02T04:18:19.400Z,9.9
2018-04-02T04:20:19.146Z,10.9
2018-04-02T04:22:18.886Z,9.3
2018-04-02T04:24:18.641Z,9.8
2018-04-02T04:26:18.747Z,9.7
2018-04-02T04:28:18.489Z,9.3
2018-04-02T04:30:19.257Z,8.9
2018-04-02T04:32:19.025Z,9.7
2018-04-02T04:34:18.772Z,9.8
2018-04-02T04:36:19.277Z,10.2
2018-04-02T04:38:19.027Z,10
2018-04-02T04:40:19.279Z,8.7
2018-04-02T04:42:19.224Z,9.1
2018-04-02T04:44:18.992Z,9.3
2018-04-02T04:46:19.320Z,10.6
2018-04-02T04:48:19.056Z,8.3
2018-04-02T04:50:18.807Z,8.9
2018-04-02T04:52:18.581Z,8.9
2018-04-02T04:54:19.359Z,9
2018-04-02T04:56:19.193Z,10.4
2018-04-02T04:58:18.949Z,7.5
2018-04-02T05:00:18.751Z,9.4
2018-04-02T05:02:18.526Z,8
2018-04-02T05:04:19.308Z,8.6
2018-04-02T05:06:19.374Z,7.7
2018-04-02T05:08:19.132Z,7.4
2018-04-02T05:10:19.390Z,7.2
2018-04-02T05:12:19.184Z,9.1
2018-04-02T05:14:18.942Z,7.8
2018-04-02T05:16:19.185Z,8.2
2018-04-02T05:18:19.032Z,8.4
2018-04-02T05:20:18.809Z,7.7
2018-04-02T05:22:18.869Z,7.9
2018-04-02T05:24:18.638Z,8.8
2018-04-02T05:26:19.163Z,8.3
2018-04-02T05:28:18.923Z,7.9
2018-04-02T05:30:18.688Z,7.3
2018-04-02T05:32:19.440Z,8.5
2018-04-02T05:34:19.191Z,7.4
2018-04-02T05:36:19.253Z,8
2018-04-02T05:38:19.020Z,8
2018-04-02T05:40:19.252Z,7.4
2018-04-02T05:42:18.986Z,8.2
2018-04-02T05:44:18.735Z,5.7
2018-04-02T05:46:19.030Z,7.6
2018-04-02T05:48:18.762Z,7.4
2018-04-02T05:50:18.501Z,7.8
2018-04-02T05:52:19.193Z,7.8
2018-04-02T05:54:18.965Z,5.9
2018-04-02T05:56:19.037Z,6.8
2018-04-02T05:58:18.776Z,6.7
2018-04-02T06:00:18.644Z,7.3
2018-04-02T06:02:19.371Z,6.9
2018-04-02T06:04:19.103Z,8.5
2018-04-02T06:06:18.725Z,7
2018-04-02T06:08:18.471Z,7.7
2018-04-02T06:10:18.718Z,7.4
2018-04-02T06:12:18.481Z,8
2018-04-02T06:14:19.248Z,7
2018-04-02T06:16:18.797Z,7.2
2018-04-02T06:18:18.622Z,7.1
2018-04-02T06:20:19.391Z,5.8
2018-04-02T06:22:19.181Z,6.7
2018-04-02T06:24:19.009Z,7.1
2018-04-02T06:26:18.718Z,8.2
2018-04-02T06:28:19.452Z,6.3
2018-04-02T06:30:19.291Z,6.9
2018-04-02T06:32:18.682Z,7
2018-04-02T06:34:19.416Z,5.5
2018-04-02T06:36:18.849Z,6.5
2018-04-02T06:38:18.588Z,6
2018-04-02T06:40:18.846Z,6.9
2018-04-02T06:42:18.592Z,6.9
2018-04-02T06:44:19.342Z,5.9
2018-04-02T06:46:19.112Z,6.3
2018-04-02T06:48:18.881Z,5.5
2018-04-02T06:50:18.641Z,5.5
2018-04-02T06:52:19.432Z,5.7
2018-04-02T06:54:19.201Z,6.1
2018-04-02T06:56:18.741Z,6.4
2018-04-02T06:58:18.509Z,5.5
2018-04-02T07:00:19.335Z,5.5
2018-04-02T07:02:19.094Z,5.8
2018-04-02T07:04:18.853Z,5.5
2018-04-02T07:06:19.374Z,5.8
2018-04-02T07:08:19.136Z,5.6
2018-04-02T07:10:19.400Z,5.1
2018-04-02T07:12:19.158Z,5.8
2018-04-02T07:14:18.883Z,5.2
2018-04-02T07:16:18.975Z,5.5
2018-04-02T07:18:18.817Z,6
2018-04-02T07:20:18.619Z,5.3
2018-04-02T07:22:19.371Z,5.4
2018-04-02T07:24:19.133Z,5.5
2018-04-02T07:26:19.176Z,6.1
2018-04-02T07:28:18.909Z,5.6
2018-04-02T07:30:18.660Z,5.2
2018-04-02T07:32:19.408Z,4.8
2018-04-02T07:34:19.141Z,4.8
2018-04-02T07:36:18.813Z,5.9
2018-04-02T07:38:18.556Z,5.6
2018-04-02T07:40:18.799Z,5.3
2018-04-02T07:42:18.591Z,5
2018-04-02T07:44:19.353Z,5.1
2018-04-02T07:46:19.192Z,5.6
2018-04-02T07:48:18.969Z,5.6
2018-04-02T07:50:18.720Z,6.1
2018-04-02T07:52:18.498Z,5.6
2018-04-02T07:54:19.258Z,5
2018-04-02T07:56:19.386Z,4.6
2018-04-02T07:58:19.146Z,5.7
2018-04-02T08:00:18.918Z,5.9
2018-04-02T08:02:18.759Z,6.8
2018-04-02T08:04:18.582Z,6.8
2018-04-02T08:06:19.280Z,5.6
2018-04-02T08:08:19.044Z,6.8
2018-04-02T08:10:19.297Z,6.8
2018-04-02T08:12:19.078Z,5.6
2018-04-02T08:14:18.853Z,6
2018-04-02T08:16:19.032Z,5.9
2018-04-02T08:18:18.851Z,6.4
2018-04-02T08:20:18.585Z,5.7
2018-04-02T08:22:19.335Z,5.2
2018-04-02T08:24:19.107Z,4.7
2018-04-02T08:26:18.760Z,6.7
2018-04-02T08:28:18.526Z,5.1
2018-04-02T08:30:19.379Z,5.2
2018-04-02T08:32:19.133Z,5.4
2018-04-02T08:34:18.892Z,4.3
2018-04-02T08:36:18.942Z,5.3
2018-04-02T08:38:18.697Z,5.1
2018-04-02T08:40:18.964Z,5.6
2018-04-02T08:42:18.713Z,4.9
2018-04-02T08:44:19.492Z,6.1
2018-04-02T08:46:18.676Z,5.2
2018-04-02T08:48:19.431Z,6.1
2018-04-02T08:50:19.179Z,5.5
2018-04-02T08:52:18.921Z,6.9
2018-04-02T08:54:18.689Z,6.2
2018-04-02T08:56:18.774Z,4.2
2018-04-02T08:58:18.536Z,6.7
2018-04-02T09:00:19.341Z,4.4
2018-04-02T09:02:19.159Z,5.6
2018-04-02T09:04:18.918Z,4.2
2018-04-02T09:06:18.748Z,5.1
2018-04-02T09:08:18.528Z,4.7
2018-04-02T09:10:18.870Z,4.6
2018-04-02T09:12:18.649Z,4.8
2018-04-02T09:14:19.415Z,4.2
2018-04-02T09:16:19.036Z,4.3
2018-04-02T09:18:18.877Z,3.8
2018-04-02T09:20:18.711Z,3.5
2018-04-02T09:22:19.281Z,3.8
2018-04-02T09:24:19.088Z,4.4
2018-04-02T09:26:18.708Z,4
2018-04-02T09:28:19.484Z,3.9
2018-04-02T09:30:19.242Z,3.1
2018-04-02T09:32:19.001Z,3.5
2018-04-02T09:34:18.767Z,3.3
2018-04-02T09:36:18.933Z,3
2018-04-02T09:38:18.698Z,2.5
2018-04-02T09:40:18.995Z,2.5
2018-04-02T09:42:18.791Z,2.8
2018-04-02T09:44:18.555Z,2.2
2018-04-02T09:46:19.151Z,2.1
2018-04-02T09:48:18.916Z,2.6
2018-04-02T09:50:18.680Z,2.8
2018-04-02T09:52:19.454Z,2.2
2018-04-02T09:54:19.292Z,1.8
2018-04-02T09:56:18.855Z,2.4
2018-04-02T09:58:18.634Z,2.6
2018-04-02T10:00:19.380Z,2
2018-04-02T10:02:19.147Z,1.9
2018-04-02T10:04:18.919Z,2.4
2018-04-02T10:06:19.276Z,2.5
2018-04-02T10:08:19.084Z,3.1
2018-04-02T10:10:19.511Z,2.5
2018-04-02T10:12:19.434Z,2
2018-04-02T10:14:19.217Z,2.3
2018-04-02T10:16:18.811Z,2.1
2018-04-02T10:18:18.663Z,2.8
2018-04-02T10:20:19.420Z,2.9
2018-04-02T10:22:19.192Z,2.6
2018-04-02T10:24:18.958Z,2.8
2018-04-02T10:26:19.125Z,1.5
2018-04-02T10:28:19.060Z,2
2018-04-02T10:30:18.851Z,2.4
2018-04-02T10:32:18.606Z,2.3
2018-04-02T10:34:19.388Z,2.1
2018-04-02T10:36:19.112Z,2.6
2018-04-02T10:38:18.877Z,2
2018-04-02T10:40:19.132Z,2.5
2018-04-02T10:42:18.922Z,2.5
2018-04-02T10:44:18.675Z,2.3
2018-04-02T10:46:19.416Z,2.9
2018-04-02T10:48:19.189Z,2.3
2018-04-02T10:50:18.996Z,2.2
2018-04-02T10:52:18.793Z,2
2018-04-02T10:54:18.604Z,1.9
2018-04-02T10:56:18.797Z,1.7
2018-04-02T10:58:18.562Z,2.7
2018-04-02T11:00:19.356Z,2.3
2018-04-02T11:02:19.142Z,2.6
2018-04-02T11:04:18.928Z,1.9
2018-04-02T11:06:19.000Z,2.5
2018-04-02T11:08:18.786Z,3.5
2018-04-02T11:10:19.035Z,2.7
2018-04-02T11:12:18.799Z,2.6
2018-04-02T11:14:18.596Z,2.6
2018-04-02T11:16:19.229Z,3
2018-04-02T11:18:19.098Z,2.8
2018-04-02T11:20:18.851Z,2.4
2018-04-02T11:22:18.695Z,2.6
2018-04-02T11:24:18.593Z,2.1
2018-04-02T11:26:18.746Z,2.2
2018-04-02T11:28:18.501Z,2.9
2018-04-02T11:30:19.254Z,2.8
2018-04-02T11:32:19.045Z,1.9
2018-04-02T11:34:18.825Z,3.2
2018-04-02T11:36:18.909Z,2.3
2018-04-02T11:38:18.692Z,3.1
2018-04-02T11:40:18.951Z,2.5
2018-04-02T11:42:18.721Z,2.6
2018-04-02T11:44:18.496Z,3.2
2018-04-02T11:46:19.068Z,3.1
2018-04-02T11:48:18.814Z,3.2
2018-04-02T11:50:18.589Z,3.7
2018-04-02T11:52:19.353Z,3.1
2018-04-02T11:54:19.172Z,3.1
2018-04-02T11:56:18.895Z,3.1
2018-04-02T11:58:18.683Z,2.9
2018-04-02T12:00:19.449Z,3.6
2018-04-02T12:02:19.219Z,3.5
2018-04-02T12:04:18.988Z,4.1
2018-04-02T12:06:18.609Z,4.3
2018-04-02T12:08:19.360Z,4.8
2018-04-02T12:10:18.622Z,4
2018-04-02T12:12:19.384Z,3.8
2018-04-02T12:14:19.146Z,3.9
2018-04-02T12:16:18.884Z,5
2018-04-02T12:18:18.720Z,5.2
2018-04-02T12:20:19.529Z,5.3
2018-04-02T12:22:19.195Z,4.2
2018-04-02T12:24:18.995Z,4.7
2018-04-02T12:26:18.556Z,5.5
2018-04-02T12:28:19.336Z,5.6
2018-04-02T12:30:19.166Z,5.4
2018-04-02T12:32:18.936Z,5.8
2018-04-02T12:34:18.730Z,6.3
2018-04-02T12:36:18.858Z,5.1
2018-04-02T12:38:18.635Z,5
2018-04-02T12:40:18.901Z,4.6
2018-04-02T12:42:18.664Z,5.8
2018-04-02T12:44:19.452Z,5.7
2018-04-02T12:46:18.841Z,5.2
2018-04-02T12:48:18.628Z,5.5
2018-04-02T12:50:19.409Z,6.4
2018-04-02T12:52:19.220Z,8.3
2018-04-02T12:54:19.039Z,7
2018-04-02T12:56:18.775Z,7
2018-04-02T12:58:18.566Z,12.2
2018-04-02T13:00:19.349Z,9
2018-04-02T13:02:19.137Z,6.8
2018-04-02T13:04:18.939Z,6.1
2018-04-02T13:06:18.536Z,7
2018-04-02T13:08:19.328Z,7.2
2018-04-02T13:10:18.601Z,7.4
2018-04-02T13:12:19.391Z,6.8
2018-04-02T13:14:19.182Z,7.9
2018-04-02T13:16:19.300Z,5.7
2018-04-02T13:18:19.180Z,6.9
2018-04-02T13:20:18.996Z,6.1
2018-04-02T13:22:18.764Z,6.7
2018-04-02T13:24:18.545Z,6.7
2018-04-02T13:26:18.688Z,6.4
2018-04-02T13:28:19.494Z,6.3
2018-04-02T13:30:19.312Z,7
2018-04-02T13:32:19.103Z,8.8
2018-04-02T13:34:18.894Z,7.5
2018-04-02T13:36:18.998Z,9
2018-04-02T13:38:18.812Z,8.7
2018-04-02T13:40:19.078Z,7.2
2018-04-02T13:42:18.850Z,9
2018-04-02T13:44:18.614Z,6.6
2018-04-02T13:46:18.706Z,6.9
2018-04-02T13:48:19.495Z,7.4
2018-04-02T13:50:19.329Z,7.9
2018-04-02T13:52:19.144Z,7.2
2018-04-02T13:54:18.931Z,7
2018-04-02T13:56:19.188Z,8
2018-04-02T13:58:18.967Z,8.1
2018-04-02T14:00:18.756Z,8.9
2018-04-02T14:02:18.567Z,7.3
2018-04-02T14:04:19.361Z,7.1
2018-04-02T14:06:18.822Z,8.7
2018-04-02T14:08:18.639Z,8.9
2018-04-02T14:10:18.935Z,8.3
2018-04-02T14:12:18.762Z,9.8
2018-04-02T14:14:18.559Z,10.4
2018-04-02T14:16:19.460Z,9.9
2018-04-02T14:18:19.360Z,9.7
2018-04-02T14:20:19.159Z,10.9
2018-04-02T14:22:18.925Z,12.1
2018-04-02T14:24:18.737Z,11.6
2018-04-02T14:26:18.820Z,10.8
2018-04-02T14:28:18.618Z,11.4
2018-04-02T14:30:19.437Z,11.9
2018-04-02T14:32:19.220Z,10.2
2018-04-02T14:34:18.982Z,11
2018-04-02T14:36:19.418Z,10.6
2018-04-02T14:38:19.222Z,11
2018-04-02T14:40:19.503Z,11.7
2018-04-02T14:42:19.302Z,12
2018-04-02T14:44:19.119Z,11.7
2018-04-02T14:46:18.682Z,13
2018-04-02T14:48:19.489Z,12.6
2018-04-02T14:50:19.301Z,11.1
2018-04-02T14:52:19.197Z,13.4
2018-04-02T14:54:18.988Z,11.2
2018-04-02T14:56:19.512Z,11.8
2018-04-02T14:58:19.407Z,11.5
2018-04-02T15:00:19.199Z,11.5
2018-04-02T15:02:19.001Z,11.3
2018-04-02T15:04:17.899Z,13
2018-04-02T15:06:18.661Z,13.2
2018-04-02T15:08:19.476Z,12.9
2018-04-02T15:10:18.781Z,14
2018-04-02T15:12:18.858Z,13.6
2018-04-02T15:14:18.675Z,12.7
2018-04-02T15:16:19.304Z,12.9
2018-04-02T15:18:19.239Z,15.1
2018-04-02T15:20:19.033Z,12.1
2018-04-02T15:22:18.862Z,13.4
2018-04-02T15:24:18.638Z,12
2018-04-02T15:26:18.785Z,13.8
2018-04-02T15:28:18.581Z,11.7
2018-04-02T15:30:19.374Z,13.6
2018-04-02T15:32:19.186Z,12.3
2018-04-02T15:34:19.008Z,12.3
2018-04-02T15:36:19.000Z,12.9
2018-04-02T15:38:18.834Z,15
2018-04-02T15:40:19.080Z,13.8
2018-04-02T15:42:18.882Z,12.7
2018-04-02T15:44:18.721Z,12.7
2018-04-02T15:46:19.340Z,13.6
2018-04-02T15:48:19.179Z,12.3
2018-04-02T15:50:18.966Z,12.5
2018-04-02T15:52:18.749Z,13
2018-04-02T15:54:18.549Z,12.9
2018-04-02T15:56:18.842Z,14.4
2018-04-02T15:58:18.641Z,13.8
2018-04-02T16:00:19.520Z,12.4
2018-04-02T16:02:19.305Z,14
2018-04-02T16:04:19.102Z,13.9
2018-04-02T16:06:18.870Z,13.1
2018-04-02T16:08:18.673Z,13.4
2018-04-02T16:10:18.942Z,13
2018-04-02T16:12:18.760Z,12.9
2018-04-02T16:14:18.573Z,13.3
2018-04-02T16:16:19.261Z,13.1
2018-04-02T16:18:19.319Z,13.8
2018-04-02T16:20:19.150Z,14.3
2018-04-02T16:22:18.937Z,13.8
2018-04-02T16:24:18.720Z,12.3
2018-04-02T16:26:19.278Z,12.3
2018-04-02T16:28:19.081Z,14
2018-04-02T16:30:18.888Z,13.3
2018-04-02T16:32:18.696Z,11.9
2018-04-02T16:34:19.510Z,12.9
2018-04-02T16:36:19.057Z,13.1
2018-04-02T16:38:18.844Z,13.7
2018-04-02T16:40:19.220Z,13.4
2018-04-02T16:42:19.003Z,13.5
2018-04-02T16:44:18.784Z,13.3
2018-04-02T16:46:19.434Z,12.7
2018-04-02T16:48:19.252Z,12.8
2018-04-02T16:50:19.067Z,13.7
2018-04-02T16:52:18.849Z,15
2018-04-02T16:54:18.622Z,13.8
2018-04-02T16:56:19.175Z,14.5
2018-04-02T16:58:18.966Z,14.3
2018-04-02T17:00:18.784Z,12.8
2018-04-02T17:02:18.577Z,13.6
2018-04-02T17:04:19.362Z,13.9
2018-04-02T17:06:18.949Z,11.5
2018-04-02T17:08:18.737Z,13.9
2018-04-02T17:10:18.999Z,14.1
2018-04-02T17:12:18.799Z,13.8
2018-04-02T17:14:18.578Z,13
2018-04-02T17:16:19.211Z,13
2018-04-02T17:18:19.107Z,13.4
2018-04-02T17:20:18.905Z,13.1
2018-04-02T17:22:18.712Z,12.6
2018-04-02T17:24:18.511Z,12.2
2018-04-02T17:26:18.962Z,13.1
2018-04-02T17:28:18.767Z,12.3
2018-04-02T17:30:18.598Z,13.7
2018-04-02T17:32:19.369Z,11.7
2018-04-02T17:34:19.151Z,11.9
2018-04-02T17:36:18.837Z,11.7
2018-04-02T17:38:18.668Z,14.7
2018-04-02T17:40:18.984Z,13.4
2018-04-02T17:42:19.151Z,12.9
2018-04-02T17:44:18.943Z,15
2018-04-02T17:46:19.516Z,12.6
2018-04-02T17:48:19.348Z,13.7
2018-04-02T17:50:19.226Z,13.6
2018-04-02T17:52:19.027Z,13.8
2018-04-02T17:54:18.815Z,13.6
2018-04-02T17:56:19.485Z,14.1
2018-04-02T17:58:19.264Z,13.6
2018-04-02T18:00:19.077Z,13.3
2018-04-02T18:02:18.886Z,13.7
2018-04-02T18:04:18.654Z,13.6
2018-04-02T18:06:19.315Z,14.1
2018-04-02T18:08:19.127Z,13
2018-04-02T18:10:19.393Z,13.1
2018-04-02T18:12:19.484Z,15
2018-04-02T18:14:19.272Z,13.4
2018-04-02T18:16:19.385Z,12.9
2018-04-02T18:18:19.222Z,13.1
2018-04-02T18:20:19.053Z,12.9
2018-04-02T18:22:19.112Z,13.3
2018-04-02T18:24:18.904Z,13.5
2018-04-02T18:26:19.184Z,12
2018-04-02T18:28:18.972Z,12.5
2018-04-02T18:30:18.836Z,11.4
2018-04-02T18:32:18.610Z,12.9
2018-04-02T18:34:19.381Z,13.1
2018-04-02T18:36:18.522Z,12.2
2018-04-02T18:38:19.374Z,11.4
2018-04-02T18:40:18.707Z,12.3
2018-04-02T18:42:19.482Z,13.1
2018-04-02T18:44:19.285Z,12.6
2018-04-02T18:46:18.872Z,12.6
2018-04-02T18:48:18.659Z,12.6
2018-04-02T18:50:19.436Z,11.2
2018-04-02T18:52:19.232Z,10.7
2018-04-02T18:54:19.051Z,11.8
2018-04-02T18:56:18.670Z,12.7
2018-04-02T18:58:19.446Z,11.5
2018-04-02T19:00:19.250Z,12
2018-04-02T19:02:18.890Z,12.3
2018-04-02T19:04:18.663Z,12.8
2018-04-02T19:06:19.299Z,12.1
2018-04-02T19:08:19.063Z,13.2
2018-04-02T19:10:19.390Z,13.3
2018-04-02T19:12:19.182Z,12.4
2018-04-02T19:14:18.963Z,12.5
2018-04-02T19:16:19.110Z,11.7
2018-04-02T19:18:18.975Z,11.9
2018-04-02T19:20:18.840Z,12.8
2018-04-02T19:22:18.689Z,13.3
2018-04-02T19:24:19.476Z,11.8
2018-04-02T19:26:18.643Z,12.7
2018-04-02T19:28:19.434Z,12.1
2018-04-02T19:30:19.321Z,12.8
2018-04-02T19:32:19.092Z,12.9
2018-04-02T19:34:18.869Z,11.8
2018-04-02T19:36:19.040Z,11.7
2018-04-02T19:38:18.805Z,14.7
2018-04-02T19:40:19.051Z,12.2
2018-04-02T19:42:18.828Z,12.4
2018-04-02T19:44:19.234Z,12.7
2018-04-02T19:46:18.825Z,12.3
2018-04-02T19:48:18.619Z,12.9
2018-04-02T19:50:19.398Z,11.1
2018-04-02T19:52:19.154Z,11.5
2018-04-02T19:54:18.962Z,12.1
2018-04-02T19:56:19.144Z,12.5
2018-04-02T19:58:18.900Z,12.8
2018-04-02T20:00:18.772Z,10.5
2018-04-02T20:02:18.535Z,13.7
2018-04-02T20:04:19.330Z,12.1
2018-04-02T20:06:18.964Z,11.7
2018-04-02T20:08:18.751Z,12.8
2018-04-02T20:10:19.033Z,13.7
2018-04-02T20:12:18.814Z,14.1
2018-04-02T20:14:18.618Z,13.3
2018-04-02T20:16:19.302Z,11.7
2018-04-02T20:18:19.174Z,11.7
2018-04-02T20:20:19.023Z,14
2018-04-02T20:22:18.819Z,13.3
2018-04-02T20:24:18.628Z,13.1
2018-04-02T20:26:18.856Z,11.7
2018-04-02T20:28:18.642Z,11.2
2018-04-02T20:30:19.424Z,13.6
2018-04-02T20:32:19.201Z,13.2
2018-04-02T20:34:18.962Z,11.9
2018-04-02T20:36:18.595Z,13.5
2018-04-02T20:38:19.390Z,12
2018-04-02T20:40:18.697Z,11.5
2018-04-02T20:42:18.511Z,12.9
2018-04-02T20:44:19.334Z,11.2
2018-04-02T20:46:18.958Z,13.4
2018-04-02T20:48:18.741Z,12
2018-04-02T20:50:18.525Z,12.9
2018-04-02T20:52:19.304Z,10.9
2018-04-02T20:54:19.101Z,12.4
2018-04-02T20:56:19.357Z,11.8
2018-04-02T20:58:19.121Z,12.4
2018-04-02T21:00:18.928Z,10.6
2018-04-02T21:02:18.704Z,13.8
2018-04-02T21:04:18.506Z,11.6
2018-04-02T21:06:18.699Z,11.3
2018-04-02T21:08:19.484Z,12.6
2018-04-02T21:10:18.755Z,12
2018-04-02T21:12:18.546Z,12
2018-04-02T21:14:19.334Z,12.2
2018-04-02T21:16:18.921Z,12.1
2018-04-02T21:18:18.809Z,12.6
2018-04-02T21:20:18.628Z,11
2018-04-02T21:22:19.186Z,10.9
2018-04-02T21:24:18.981Z,12.4
2018-04-02T21:26:18.529Z,12.3
2018-04-02T21:28:19.321Z,12.1
2018-04-02T21:30:19.174Z,13.6
2018-04-02T21:32:18.944Z,11.5
2018-04-02T21:34:18.734Z,12.2
2018-04-02T21:36:18.928Z,11.7
2018-04-02T21:38:18.748Z,11.6
2018-04-02T21:40:19.023Z,11.9
2018-04-02T21:42:18.799Z,11.5
2018-04-02T21:44:18.581Z,11.7
2018-04-02T21:46:18.824Z,12.3
2018-04-02T21:48:18.608Z,11.4
2018-04-02T21:50:19.398Z,10.8
2018-04-02T21:52:19.201Z,12.7
2018-04-02T21:54:18.980Z,11.5
2018-04-02T21:56:19.133Z,11.2
2018-04-02T21:58:18.949Z,11.2
2018-04-02T22:00:18.736Z,12.5
2018-04-02T22:02:19.534Z,13.3
2018-04-02T22:04:19.350Z,10.2
2018-04-02T22:06:18.920Z,10.3
2018-04-02T22:08:18.697Z,11.1
2018-04-02T22:10:18.924Z,11.8
2018-04-02T22:12:18.696Z,10.2
2018-04-02T22:14:19.466Z,11.3
2018-04-02T22:16:19.212Z,11.2
2018-04-02T22:18:19.079Z,10.3
2018-04-02T22:20:18.887Z,11.3
2018-04-02T22:22:18.672Z,12.4
2018-04-02T22:24:19.465Z,11.1
2018-04-02T22:26:18.610Z,10.4
2018-04-02T22:28:19.359Z,10.6
2018-04-02T22:30:19.131Z,11.5
2018-04-02T22:32:18.902Z,11.4
2018-04-02T22:34:18.698Z,11.6
2018-04-02T22:36:19.347Z,11.3
2018-04-02T22:38:19.120Z,9.9
2018-04-02T22:40:19.361Z,10.3
2018-04-02T22:42:19.136Z,8.9
2018-04-02T22:44:18.899Z,11.5
2018-04-02T22:46:19.442Z,10.7
2018-04-02T22:48:19.211Z,9.6
2018-04-02T22:50:19.018Z,10.6
2018-04-02T22:52:18.790Z,11.2
2018-04-02T22:54:18.552Z,9.1
2018-04-02T22:56:18.776Z,9.7
2018-04-02T22:58:18.564Z,10.2
2018-04-02T23:00:19.344Z,11.2
2018-04-02T23:02:19.108Z,10
2018-04-02T23:04:18.878Z,10.6
2018-04-02T23:06:18.615Z,10.2
2018-04-02T23:08:19.411Z,10.6
2018-04-02T23:10:18.690Z,10.7
2018-04-02T23:12:19.483Z,10.5
2018-04-02T23:14:19.262Z,10.8
2018-04-02T23:16:19.394Z,9.6
2018-04-02T23:18:19.255Z,10.9
2018-04-02T23:20:19.027Z,10.8
2018-04-02T23:22:18.785Z,10.3
2018-04-02T23:24:18.560Z,9.9
2018-04-02T23:26:18.656Z,9.9
2018-04-02T23:28:19.427Z,11.2
2018-04-02T23:30:19.205Z,11
2018-04-02T23:32:18.846Z,10.9
2018-04-02T23:34:18.611Z,12.2
2018-04-02T23:36:18.839Z,10.2
2018-04-02T23:38:18.603Z,9.7
2018-04-02T23:40:18.829Z,10.1
2018-04-02T23:42:18.637Z,10.8
2018-04-02T23:44:19.426Z,9.9
2018-04-02T23:46:18.512Z,9
2018-04-02T23:48:19.292Z,10.1
2018-04-02T23:50:19.070Z,11
2018-04-02T23:52:18.840Z,10.7
2018-04-02T23:54:18.607Z,11
2018-04-02T23:56:18.799Z,9.6
2018-04-02T23:58:18.570Z,10.6
